Main page
METAR-TAF:

METAR-TAF

Airports :

Banjul International Airport

Banjul, Gambia

latitude: 13-21N, longitude: 016-48W, elevation: 36 m

Current weather observation

The report was made 30 minutes ago, at 09:00 UTC
Wind 8 kt from the West
Temperature 28°C
Humidity 79%
Pressure 1015 hPa
Visibility 10 km or more
Broken clouds at a height of 1100 ft
Few clouds at a height of 1800 ft, Cumulonimbus.
Broken clouds at a height of 11000 ft

METAR: GBYD 170900Z 26008KT 9999 BKN011 FEW018CB BKN110 28/24 Q1015 CB SW-NW

Time: 09:30 (09:30 UTC)

Forecast

The report was made 4 hours and 0 minutes ago, at 05:30 UTC
Forecast valid from 17 at 06 UTC to 18 at 12 UTC
Wind 8 kt from the West/Southwest
Visibility 10 km or more
Scattered clouds at a height of 1300 ft
Temporary
from 17 at 16 UTC to 17 at 22 UTC
Visibility: 4000 m
Broken clouds at a height of 1000 ft
Few clouds at a height of 1800 ft, Cumulonimbus.
thunderstorm, rain

TAF: GBYD 170530Z 1706/1812 25008KT 9999 SCT013 TEMPO 1716/1722 4000 TSRA BKN010 FEW018CB

Weather observations and forecasts of more than 4000 airports (METAR and TAF reports).

The available stations are represented by yellow and red dots on the map.

Hover mouse over dot to see the name of the station.

Then click to see weather observations and forecasts.

To change the map : click on the green buttons with a black cross to zoom in, on the green button with a dash to zoom out, or on the green arrows for adjacent maps.


METAR-TAF: